Amit David

Olheiro - Maccabi Haifa
17 Abr 2029
Terça-feira
Processo

Personalidade

Adaptabilidade (20) Ambição (7) Controvérsia (2) Lealdade (13) Pressão (19) Profissionalismo (12) Espírito Esportivo (8) Temperamento (17)

Perfil

Estilo de Treinamento Democrático
Licença Continental C
Determinação 4
Gestão de Pessoas 9
Motivação 10
Disciplina 10
Satisfação no Trabalho
100%
Fadiga
0%
Função Olheiro
Salário 26.3K p/s
Contrato 14.03.2030

Desempenho

Comportamento Bom
Eficácia do Treinamento
51%
Desenvolvimento do Jogador
55%
Prevenção de Lesões
25%
Implementação Tática
50%

Monitorando agora

136
Jogador Clube Status Habilidade Confiança Observado Última observação Último voto
Filip Reshane Sarpsborg 08 Ativo 108 / 109 40% 2 31.01.2029 -
Percy Zungu Platinum Stars Ativo 92 / 86 40% 2 30.01.2029 -
José Capponi Stevenage Ativo 83 / 101 40% 1 30.01.2029 -
Emile Dortley Platinum Stars Ativo 89 / 92 40% 1 30.01.2029 -
Roey Magor Maccabi Tel Aviv Ativo 97 / 107 83% 1 29.01.2029 Aprovar
Manuel Verre Pro Patria Ativo 101 / 97 40% 1 24.01.2029 -
Isaiah Alakiu Persebaya Ativo 85 / 91 40% 1 24.01.2029 -
Tiago Gordillo San Miguel Ativo 85 / 97 40% 4 23.01.2029 -
Myles Dayman Stevenage Ativo 95 / 106 40% 2 23.01.2029 -
Martín Jiménez Universidad de Concepcion Ativo 103 / 108 40% 5 22.01.2029 -
Amit Lemkin Hapoel Tel Aviv Ativo 104 / 111 83% 1 22.01.2029 Aprovar
Loui Whitehead Tranmere Rovers Ativo 83 / 85 40% 1 22.01.2029 -
Alvin Ayman Gor Mahia Ativo 93 / 96 40% 4 21.01.2029 -
Juan Pablo Hernández Cerro Largo Ativo 103 / 104 40% 1 21.01.2029 -
Alfie Cresswell Chesterfield Ativo 113 / 123 40% 1 21.01.2029 -
Bernardo Lima Porto Ativo 119 / 136 40% 5 20.01.2029 -
Rafael Mota Sporting CP Ativo 113 / 119 40% 3 18.01.2029 -
Saar Elkayam Hapoel Haifa Ativo 106 / 99 40% 3 18.01.2029 Observar
Jonathan Whiteley Harrogate Town Ativo 85 / 104 40% 1 18.01.2029 -
Azizbek To'lqinbekov Sogdiana Ativo 105 / 107 40% 3 17.01.2029 -
Matvey Kuznetsov Spartak Moscow Ativo 87 / 103 40% 2 17.01.2029 -
Henrik Skretteberg Sandefjord Ativo 87 / 99 40% 1 17.01.2029 -
Miguel Figueiredo Benfica Ativo 125 / 123 40% 5 15.01.2029 -
Lewi Richards Walsall Ativo 103 / 118 40% 2 15.01.2029 -
Djibril Coulibaly Paris FC Ativo 125 / 126 40% 2 14.01.2029 -
Fillip Jenssen Riise Stabaek Ativo 100 / 117 40% 1 14.01.2029 -
Jack Shorrock Port Vale Ativo 109 / 113 40% 6 11.01.2029 -
Nejc Viher NK Maribor Ativo 128 / 122 40% 1 11.01.2029 -
Ivan Borges Defensores Ativo 88 / 91 40% 4 10.01.2029 -
Aytor Herrera Llaneros Ativo 90 / 96 40% 1 10.01.2029 -
Jacob Hall Latina Ativo 95 / 96 40% 2 09.01.2029 -
Pascal Mozie Legia Ativo 103 / 121 40% 1 07.01.2029 -
Jacob Watson Doncaster Rovers Ativo 89 / 105 40% 1 04.01.2029 -
Sulyman Krubally Burton Albion Ativo 89 / 92 40% 1 03.01.2029 -
Tobiáš Pališčák AS Trencin Ativo 106 / 116 40% 1 02.01.2029 -
Saba Kharebashvili Besiktas Ativo 140 / 142 40% 1 02.01.2029 -
Braian Cabral Madryn Ativo 93 / 96 40% 1 30.08.2028 -
Jim Thwaites Manchester United Ativo 119 / 130 40% 1 28.08.2028 -
Lautaro Ávila Racing Ativo 98 / 100 40% 1 28.08.2028 -
Ramiro Jara Racing Ativo 86 / 94 40% 2 21.08.2028 -
Ahmed Khaled Paralimni Ativo 103 / 115 40% 1 21.08.2028 -
Quinn MacNicol Auckland FC Ativo 107 / 120 40% 1 21.08.2028 -
Anderson Acevedo Patriotas Ativo 93 / 95 40% 1 17.08.2028 -
Riley Foxe Sydney FC Ativo 96 / 98 40% 1 17.08.2028 -
Emiliano Bértoli Patronato Ativo 91 / 103 40% 1 15.08.2028 -
Otar Mchedlidze Tskhinvali Ativo 88 / 96 40% 1 15.08.2028 -
Diego Cheuquepal Racing Ativo 102 / 113 40% 2 14.08.2028 -
Juan Camilo Córdoba Deportivo Pereira Ativo 92 / 99 40% 1 14.08.2028 -
Konta Ismaily Ativo 110 / 122 40% 1 14.08.2028 -
Agustín Medina River Plate Ativo 122 / 124 40% 4 17.07.2028 -
Adham Farid Ismaily Ativo 105 / 102 40% 1 17.07.2028 -
Joe Emery Salford City Ativo 99 / 93 40% 2 12.07.2028 -
Callum Tripp Milton Keynes Dons Ativo 100 / 90 40% 1 12.07.2028 -
Ayomide Abatan Jihlava Ativo 87 / 95 40% 1 12.07.2028 -
Gideon Manaseh Ikorodu City Ativo 93 / 104 40% 3 11.07.2028 -
Frederik Damkjer Viborg Ativo 98 / 104 40% 1 11.07.2028 -
Owen Foye Swindon Town Ativo 86 / 101 40% 1 03.07.2028 -
Adem Avdić TSC Ativo 115 / 107 40% 3 21.06.2028 -
Jamie Wähling Marsaxlokk Ativo 92 / 100 40% 3 20.06.2028 -
Federico Nardin Alcione Milano Ativo 96 / 115 40% 3 20.06.2028 -
Mattia Mannini Juve Stabia Ativo 116 / 128 40% 2 20.06.2028 -
Jenson Jones Penafiel Ativo 104 / 112 40% 2 19.06.2028 -
Kaiden Moore ES Mostaganem Ativo 93 / 99 40% 1 19.06.2028 -
Denys Smetana Metalurh Zaporizhzhia Ativo 100 / 102 40% 1 18.06.2028 -
Ronwen Mabunda Platinum Stars Ativo 86 / 83 40% 3 17.06.2028 -
David Damboama El-Kanemi Warriors Ativo 81 / 93 40% 2 16.06.2028 -
Pape Cabral Monaco Ativo 123 / 118 40% 1 16.06.2028 -
Daniel Banjaqui Benfica Ativo 124 / 135 40% 6 14.06.2028 -
Mohamed Bendary ENPPI Ativo 88 / 95 40% 1 12.06.2028 -
Mattia Puzone Siracusa Ativo 104 / 111 40% 1 11.06.2028 -
Noa Mikić HNK Gorica Ativo 121 / 113 40% 1 11.06.2028 -
Aymeris Ligeon Vizela Ativo 87 / 99 40% 1 06.06.2028 -
João Brito Porto Ativo 100 / 109 40% 1 05.06.2028 -
Filipe Sousa Porto Ativo 108 / 114 40% 2 03.06.2028 -
Denis Grigorjev Arsenal Tula Ativo 92 / 101 40% 1 02.06.2028 -
Emiliano Zambrano Gimnasia y Esgrima Ativo 93 / 93 40% 3 31.01.2028 -
Matheus Davó Maccabi Netanya Ativo 126 / 119 79% 1 31.01.2028 Aprovar
Kutlwano Letlhaku Ajax Cape Town Ativo 120 / 125 40% 1 31.01.2028 -
Honest Ahanor Udinese Ativo 137 / 139 40% 1 27.01.2028 -
Romuald Sawadogo Hapoel Raanana Ativo 103 / 104 40% 3 25.01.2028 -
Jan Bürger Burton Albion Ativo 114 / 125 40% 2 25.01.2028 -
Nahuel Leivas Montevideo City Torque Ativo 106 / 114 40% 1 23.01.2028 -
Bradel Kiwa Monaco Ativo 128 / 121 40% 2 10.01.2028 -
Hian Rincón Once Caldas Ativo 91 / 97 40% 1 10.01.2028 -
Martim Cunha Porto Ativo 114 / 115 40% 4 07.01.2028 -
Juan Manuel Villalba Estudiantes Ativo 120 / 124 40% 2 07.01.2028 -
Matvey Bardachev Zenit Ativo 105 / 120 40% 1 06.01.2028 -
Juan Giménez Rosario Central Ativo 120 / 124 40% 1 04.01.2028 -
Makar Kuznetsov Zugdidi Ativo 83 / 75 40% 1 04.01.2028 -
Jair Collahuazo Kudrivka Ativo 109 / 103 40% 1 04.01.2028 -
Amos Nondi Bali United Ativo 103 / 113 40% 1 03.01.2028 -
Leonel Pollacchi San Telmo Ativo 116 / 118 40% 1 03.01.2028 -
Malte Hallin GIF Sundsvall Ativo 89 / 103 40% 1 30.08.2027 -
Caleb Yirenkyi Coventry City Ativo 138 / 145 40% 1 30.08.2027 -
Victor Ehibe Barau Ativo 82 / 87 40% 1 30.08.2027 -
Matías Canedo Rampla Juniors Ativo 85 / 96 40% 1 23.08.2027 -
Tiziano Cabrera Central Norte Ativo 84 / 90 40% 3 19.08.2027 -
Francisco Burgio Oriental Ativo 81 / 89 40% 1 19.08.2027 -
Mateo Ostachi Alvarado Ativo 90 / 95 40% 3 18.08.2027 -
Lucas Pyziak Vélez Ativo 105 / 106 40% 1 18.08.2027 -
Timofey Tkachev Baranovichi Ativo 82 / 89 40% 1 17.08.2027 -
Maren Kefas Plateau United Ativo 86 / 90 40% 3 16.08.2027 -
Simón Bodnar River Plate Ativo 114 / 126 40% 1 16.08.2027 -
Dennis Konney US Bougouba Ativo 75 / 98 40% 2 15.08.2027 -
Yaroslav Matyukhin Alashkert Ativo 106 / 107 40% 1 15.08.2027 -
Alin Kumer Čelik Genoa Ativo 103 / 96 40% 1 14.08.2027 -
Nicolás Ferreira Artigas Ativo 76 / 92 40% 1 13.08.2027 -
Benjamin Merba Foullah Edifice Ativo 78 / 73 40% 1 13.08.2027 -
Matías Gómez Independiente Ativo 108 / 118 40% 1 11.08.2027 -
Daniel Awuni Aduana Stars Ativo 95 / 97 40% 3 09.08.2027 -
Mirko Bruno Vélez Ativo 104 / 115 40% 1 09.08.2027 -
Nathan Doualla Canon Yaounde Ativo 93 / 91 40% 4 06.08.2027 -
Román Barrios Patronato Ativo 89 / 94 40% 2 04.08.2027 -
Iwan Henstra Cambuur Ativo 92 / 112 40% 7 31.07.2027 -
Federico Coletta Benfica Ativo 104 / 115 40% 1 31.07.2027 -
Ryunosuke Sato Valencia Ativo 125 / 127 40% 4 30.07.2027 -
Asanele Bonani Chippa United Ativo 100 / 92 40% 3 26.07.2027 -
Chris Martínez Atletico Venezuela Ativo 82 / 88 40% 1 26.07.2027 -
Lautaro Millán Independiente Ativo 120 / 133 40% 5 25.07.2027 -
Joel Medina Osasuna Ativo 114 / 133 40% 3 23.07.2027 -
Miguel Di Pizio Western Sydney Wanderers Ativo 108 / 110 40% 4 15.07.2027 -
Paulo Cardoso Sporting CP Ativo 102 / 97 40% 1 13.07.2027 -
Yegor Gulyaev Chaika Ativo 78 / 93 40% 2 12.07.2027 -
Luca Maiorano Pro Patria Ativo 98 / 109 40% 3 08.07.2027 -
Leonel Jaime River Plate Ativo 113 / 117 40% 3 08.07.2027 -
Adam Wierzbicki Khimik Ativo 88 / 94 40% 2 06.07.2027 -
Mattia Della Rocca Vicenza Ativo 98 / 96 40% 1 29.06.2027 -
Noah Maieroni Brisbane Roar Ativo 100 / 109 40% 1 26.06.2027 -
Molemo Seemela Zvezda Ativo 84 / 69 40% 1 26.06.2027 -
Nupe Godstime Bayelsa United Ativo 79 / 95 40% 1 22.06.2027 -
Nikita Posmashny Chaika Ativo 83 / 80 40% 1 21.06.2027 -
Mads Abrahamsen Druzhba Ativo 84 / 103 40% 1 19.06.2027 -
Borna Knezović Casarano Ativo 110 / 116 40% 1 17.06.2027 -
Alexis Fretes Libertad Ativo 107 / 110 40% 1 07.06.2027 -
Matías Pellegrini Vélez Ativo 122 / 122 40% 1 17.08.2026 -
Manfred Fischer Austria Wien Ativo 123 / 136 40% 1 17.08.2026 -